Huvudsida
METAR-TAF:

METAR-TAF

Flygplatser :

Singapore, Singapore

latitud: 01-25-08N, longitud: 103-51-57E, höjd: 11 m

Aktuellt väderrapport

Denna rapport gjordes för 21 timmar och 55 minuter sedan, klockan 00:00 UTC
Vind 4 kt från ost/sydost
Temperatur 28°C
Fuktighet 79%
Tryck 1009 hPa
Sikt 10 km eller mer
Få moln på en höjd av 1800 ft
Brutna moln på en höjd av 35000 ft

METAR: WSSL 210000Z 12004KT 9999 FEW018 BKN350 28/24 Q1009 RMK 2330Z Q1009

Tid: 05:55 (21:55 UTC)

Väderprognos

Denna rapport gjordes för 21 timmar och 55 minuter sedan, klockan 00:00 UTC
Prognos gäller från 21 kl. 00 UTC till 22 kl. 06 UTC
Vind 10 kt från syd
Sikt 10 km eller mer
Få moln på en höjd av 1500 ft
Spridda moln på en höjd av 2000 ft
Temporärt
från 21 kl. 05 UTC till 21 kl. 07 UTC
Sikt: 3000 m
Få moln på en höjd av 1200 ft, Cumulonimbus.
Brutna moln på en höjd av 1500 ft
åska, regn

TAF: WSSL 210000Z 2100/2206 18010KT 9999 FEW015 SCT020 TEMPO 2105/2107 3000 TSRA FEW012CB BKN015

Aktuella väderrapporter och prognoser från 4000 flygplatser (METAR- och TAF-rapporter).

De tillgängliga stationerna syns som gula och röda prickar på kartan.

För musen över prickarna för att se namnen på stationerna.

Klicka sedan för att få väderrapporter och prognoser.

För att ändra kartan: Klicka på de gröna knapparna med ett svart kors på för att zooma in; den gröna knappen med ett streck på för att zooma ut; eller på de gröna pilarna för angränsande kartor.


METAR-TAF: